Terminal Aerodrome Forecast
Issued by NWS

Home | Current Version | Previous Version | Text Only | Print | Product List | Glossary On
Versions: 1 2 3 4 5 6 7 8 9 10 11 12 13 14 15 16 17 18 19 20
000
FTUS46 KSEW 241140
TAFOLM
TAF
KOLM 241140Z 2412/2512 00000KT 1/4SM FZFG VV002
     FM241900 VRB03KT 3SM BR OVC006
     FM242100 VRB03KT P6SM FEW010 BKN200
     FM250300 00000KT 5SM BR FEW003 BKN200
     FM250600 00000KT 3/4SM BR VV002
      TEMPO 2508/2512 1/4SM FZFG VV001=

USA.gov is the U.S. government's official web portal to all federal, state and local government web resources and services.